createdAt,value
2023-01-11T00:00:33.053Z,99654.50
2023-01-11T00:03:01.155Z,99658.84
2023-01-11T00:05:30.406Z,99658.59
2023-01-11T00:07:59.273Z,99663.16
2023-01-11T00:10:27.064Z,99664.81
2023-01-11T00:12:54.718Z,99658.59
2023-01-11T00:15:22.316Z,99664.00
2023-01-11T00:17:49.949Z,99663.16
2023-01-11T00:20:17.763Z,99661.53
2023-01-11T00:22:46.822Z,99662.34
2023-01-11T00:25:14.888Z,99659.88
2023-01-11T00:27:42.568Z,99659.06
2023-01-11T00:30:10.689Z,99660.94
2023-01-11T00:32:38.332Z,99660.94
2023-01-11T00:35:06.351Z,99659.28
2023-01-11T00:37:34.005Z,99664.69
2023-01-11T00:40:03.037Z,99666.53
2023-01-11T00:42:47.792Z,99662.41
2023-01-11T00:45:32.408Z,99665.69
2023-01-11T00:48:00.960Z,99664.06
2023-01-11T00:50:29.713Z,99669.44
2023-01-11T00:52:57.399Z,99669.44
2023-01-11T00:55:28.491Z,99665.69
2023-01-11T00:57:56.110Z,99674.84
2023-01-11T01:00:23.793Z,99669.44
2023-01-11T01:02:51.473Z,99667.78
2023-01-11T01:05:19.266Z,99673.16
2023-01-11T01:07:47.107Z,99677.72
2023-01-11T01:10:15.083Z,99673.16
2023-01-11T01:13:01.484Z,99668.41
2023-01-11T01:15:29.175Z,99683.53
2023-01-11T01:17:56.856Z,99681.84
2023-01-11T01:20:26.127Z,99684.53
2023-01-11T01:22:53.805Z,99694.28
2023-01-11T01:25:21.427Z,99686.22
2023-01-11T01:27:51.533Z,99698.00
2023-01-11T01:30:19.301Z,99695.31
2023-01-11T01:32:46.937Z,99696.38
2023-01-11T01:35:14.563Z,99690.97
2023-01-11T01:37:42.183Z,99678.56
2023-01-11T01:40:10.691Z,99682.28
2023-01-11T01:42:38.308Z,99687.69
2023-01-11T01:45:08.405Z,99696.81
2023-01-11T01:47:37.692Z,99693.06
2023-01-11T01:50:06.446Z,99694.94
2023-01-11T01:52:34.363Z,99712.97
2023-01-11T01:55:02.614Z,99702.19
2023-01-11T01:57:30.696Z,99703.22
2023-01-11T01:59:58.439Z,99702.19
2023-01-11T02:02:27.560Z,99707.56
2023-01-11T02:04:56.279Z,99712.09
2023-01-11T02:07:25.351Z,99706.97
2023-01-11T02:09:54.165Z,99709.66
2023-01-11T02:12:21.839Z,99720.41
2023-01-11T02:14:49.479Z,99714.22
2023-01-11T02:17:17.279Z,99718.34
2023-01-11T02:19:52.758Z,99718.34
2023-01-11T02:22:35.252Z,99723.47
2023-01-11T02:25:06.097Z,99720.78
2023-01-11T02:27:35.760Z,99731.56
2023-01-11T02:30:08.809Z,99724.31
2023-01-11T02:32:38.240Z,99716.22
2023-01-11T02:35:09.766Z,99733.44
2023-01-11T02:37:38.652Z,99724.53
2023-01-11T02:40:08.697Z,99724.53
2023-01-11T02:42:55.769Z,99729.09
2023-01-11T02:45:28.723Z,99716.66
2023-01-11T02:47:56.876Z,99742.75
2023-01-11T02:50:26.413Z,99732.81
2023-01-11T02:52:55.243Z,99740.28
2023-01-11T02:55:23.478Z,99741.13
2023-01-11T02:57:51.112Z,99734.91
2023-01-11T03:00:18.975Z,99745.66
2023-01-11T03:02:47.965Z,99747.34
2023-01-11T03:05:15.780Z,99740.28
2023-01-11T03:07:47.165Z,99748.34
2023-01-11T03:10:18.568Z,99750.47
2023-01-11T03:12:55.056Z,99760.19
2023-01-11T03:15:30.605Z,99754.78
2023-01-11T03:18:02.276Z,99757.47
2023-01-11T03:20:30.153Z,99754.78
2023-01-11T03:23:01.865Z,99756.66
2023-01-11T03:25:32.143Z,99748.59
2023-01-11T03:28:01.732Z,99751.03
2023-01-11T03:30:30.185Z,99752.72
2023-01-11T03:33:00.500Z,99759.72
2023-01-11T03:35:30.141Z,99765.13
2023-01-11T03:38:00.295Z,99766.78
2023-01-11T03:40:29.062Z,99767.00
2023-01-11T03:43:12.263Z,99772.38
2023-01-11T03:45:41.010Z,99776.94
2023-01-11T03:48:09.556Z,99779.00
2023-01-11T03:50:38.538Z,99780.66
2023-01-11T03:53:06.993Z,99794.09
2023-01-11T03:55:35.339Z,99787.09
2023-01-11T03:58:02.942Z,99785.44
2023-01-11T04:00:30.606Z,99787.09
2023-01-11T04:02:58.251Z,99792.47
2023-01-11T04:05:25.894Z,99788.13
2023-01-11T04:07:54.924Z,99792.66
2023-01-11T04:10:22.589Z,99796.22
2023-01-11T04:12:50.260Z,99798.06
2023-01-11T04:15:17.940Z,99798.28
2023-01-11T04:17:45.586Z,99805.31
2023-01-11T04:20:13.378Z,99811.75
2023-01-11T04:22:41.023Z,99816.06
2023-01-11T04:25:10.531Z,99815.50
2023-01-11T04:27:38.200Z,99823.34
2023-01-11T04:30:06.277Z,99811.75
2023-01-11T04:32:33.992Z,99812.38
2023-01-11T04:35:01.611Z,99814.19
2023-01-11T04:37:29.736Z,99827.47
2023-01-11T04:39:57.400Z,99833.66
2023-01-11T04:42:25.966Z,99837.16
2023-01-11T04:44:53.650Z,99845.25
2023-01-11T04:47:21.783Z,99847.94
2023-01-11T04:49:49.441Z,99857.06
2023-01-11T04:52:17.512Z,99855.41
2023-01-11T04:54:45.167Z,99856.25
2023-01-11T04:57:13.185Z,99862.44
2023-01-11T04:59:42.203Z,99852.72
2023-01-11T05:02:09.829Z,99858.13
2023-01-11T05:04:37.510Z,99864.50
2023-01-11T05:07:05.134Z,99866.19
2023-01-11T05:09:32.941Z,99862.88
2023-01-11T05:12:00.611Z,99876.09
2023-01-11T05:14:28.209Z,99879.84
2023-01-11T05:16:57.264Z,99878.22
2023-01-11T05:19:25.061Z,99878.22
2023-01-11T05:21:52.675Z,99878.22
2023-01-11T05:24:20.357Z,99893.53
2023-01-11T05:26:50.208Z,99894.34
2023-01-11T05:29:20.405Z,99901.38
2023-01-11T05:31:48.199Z,99900.56
2023-01-11T05:34:17.556Z,99903.25
2023-01-11T05:36:45.258Z,99915.06
2023-01-11T05:39:13.080Z,99920.44
2023-01-11T05:41:40.751Z,99918.34
2023-01-11T05:44:26.536Z,99914.63
2023-01-11T05:46:54.273Z,99922.72
2023-01-11T05:49:23.390Z,99922.72
2023-01-11T05:51:51.145Z,99925.41
2023-01-11T05:54:18.834Z,99927.03
2023-01-11T05:56:46.464Z,99925.41
2023-01-11T05:59:14.152Z,99929.72
2023-01-11T06:01:41.971Z,99937.81
2023-01-11T06:04:09.693Z,99934.06
2023-01-11T06:06:38.881Z,99933.25
2023-01-11T06:09:06.660Z,99941.13
2023-01-11T06:11:34.387Z,99945.69
2023-01-11T06:14:02.022Z,99941.13
2023-01-11T06:16:30.015Z,99942.13
2023-01-11T06:18:57.721Z,99933.88
2023-01-11T06:21:25.627Z,99948.13
2023-01-11T06:23:55.444Z,99953.53
2023-01-11T06:26:23.279Z,99957.03
2023-01-11T06:28:51.095Z,99958.09
2023-01-11T06:31:18.871Z,99960.56
2023-01-11T06:33:46.558Z,99960.56
2023-01-11T06:36:14.263Z,99972.97
2023-01-11T06:38:41.981Z,99968.66
2023-01-11T06:41:11.546Z,99967.59
2023-01-11T06:43:41.564Z,99967.59
2023-01-11T06:46:11.404Z,99985.38
2023-01-11T06:48:39.063Z,99984.56
2023-01-11T06:51:06.706Z,99982.69
2023-01-11T06:53:34.347Z,99990.38
2023-01-11T06:56:02.037Z,100004.66
2023-01-11T06:58:31.056Z,99995.75
2023-01-11T07:00:58.813Z,100008.16
2023-01-11T07:03:26.633Z,100012.50
2023-01-11T07:05:54.433Z,100009.81
2023-01-11T07:08:22.120Z,100006.09
2023-01-11T07:10:49.762Z,100016.88
2023-01-11T07:13:17.664Z,100011.47
2023-01-11T07:15:48.421Z,100013.34
2023-01-11T07:18:16.164Z,100016.03
2023-01-11T07:20:43.804Z,100021.44
2023-01-11T07:23:11.456Z,100024.13
2023-01-11T07:25:39.178Z,100031.34
2023-01-11T07:28:07.333Z,100027.63
2023-01-11T07:30:51.761Z,100031.97
2023-01-11T07:33:24.958Z,100033.84
2023-01-11T07:35:53.889Z,100027.63
2023-01-11T07:38:21.622Z,100041.91
2023-01-11T07:40:49.231Z,100044.59
2023-01-11T07:43:15.907Z,100044.59
2023-01-11T07:45:46.108Z,100046.47
2023-01-11T07:48:14.749Z,100038.41
2023-01-11T07:50:45.217Z,100046.47
2023-01-11T07:53:13.200Z,100049.16
2023-01-11T07:55:41.020Z,100054.56
2023-01-11T07:58:08.641Z,100063.44
2023-01-11T08:00:36.677Z,100066.97
2023-01-11T08:03:04.493Z,100065.31
2023-01-11T08:05:32.202Z,100066.97
2023-01-11T08:08:01.294Z,100067.78
2023-01-11T08:10:29.097Z,100079.38
2023-01-11T08:13:14.296Z,100089.31
2023-01-11T08:15:42.693Z,100090.16
2023-01-11T08:18:11.410Z,100102.59
2023-01-11T08:20:39.105Z,100107.16
2023-01-11T08:23:08.573Z,100115.22
2023-01-11T08:25:36.363Z,100110.88
2023-01-11T08:28:04.489Z,100117.91
2023-01-11T08:30:32.235Z,100117.06
2023-01-11T08:33:01.514Z,100117.91
2023-01-11T08:35:29.127Z,100120.38
2023-01-11T08:37:56.845Z,100128.47
2023-01-11T08:40:26.441Z,100134.91
2023-01-11T08:42:55.682Z,100129.50
2023-01-11T08:45:23.429Z,100134.91
2023-01-11T08:47:52.373Z,100134.06
2023-01-11T08:50:20.223Z,100136.53
2023-01-11T08:52:48.592Z,100140.06
2023-01-11T08:55:16.846Z,100143.59
2023-01-11T08:57:46.155Z,100150.63
2023-01-11T09:00:16.011Z,100145.25
2023-01-11T09:02:45.304Z,100145.25
2023-01-11T09:05:13.625Z,100160.56
2023-01-11T09:07:41.309Z,100158.91
2023-01-11T09:10:09.929Z,100167.81
2023-01-11T09:12:37.599Z,100170.53
2023-01-11T09:15:07.961Z,100165.13
2023-01-11T09:17:35.713Z,100163.47
2023-01-11T09:20:04.497Z,100172.34
2023-01-11T09:22:32.150Z,100169.91
2023-01-11T09:25:01.428Z,100170.91
2023-01-11T09:27:29.171Z,100173.00
2023-01-11T09:29:57.585Z,100167.63
2023-01-11T09:32:26.804Z,100177.56
2023-01-11T09:34:58.431Z,100172.19
2023-01-11T09:37:26.168Z,100182.09
2023-01-11T09:39:54.486Z,100180.47
2023-01-11T09:42:29.376Z,100179.63
2023-01-11T09:45:01.122Z,100178.81
2023-01-11T09:47:33.688Z,100169.88
2023-01-11T09:50:03.217Z,100166.38
2023-01-11T09:52:33.207Z,100166.38
2023-01-11T09:55:01.448Z,100166.38
2023-01-11T09:57:42.058Z,100164.72
2023-01-11T10:00:15.338Z,100161.22
2023-01-11T10:02:49.869Z,100167.41
2023-01-11T10:05:23.694Z,100173.81
2023-01-11T10:18:26.621Z,100181.50
2023-01-11T10:19:37.354Z,100185.84
2023-01-11T10:22:09.044Z,100184.19
2023-01-11T10:24:39.075Z,100189.34
2023-01-11T10:27:10.094Z,100193.09
2023-01-11T10:29:49.794Z,100190.59
2023-01-11T10:32:46.408Z,100191.66
2023-01-11T10:35:41.312Z,100179.19
2023-01-11T10:38:30.161Z,100192.66
2023-01-11T10:41:08.442Z,100191.00
2023-01-11T10:43:37.213Z,100188.31
2023-01-11T10:48:40.964Z,100187.50
2023-01-11T10:51:12.821Z,100182.94
2023-01-11T10:53:41.475Z,100185.81
2023-01-11T10:56:13.748Z,100186.69
2023-01-11T10:58:47.974Z,100181.28
2023-01-11T11:01:20.567Z,100190.38
2023-01-11T11:03:55.716Z,100195.78
2023-01-11T11:06:28.303Z,100201.16
2023-01-11T11:08:58.177Z,100205.72
2023-01-11T11:11:28.840Z,100201.16
2023-01-11T11:13:56.943Z,100196.41
2023-01-11T11:16:31.454Z,100199.91
2023-01-11T11:18:59.831Z,100199.91
2023-01-11T11:21:31.169Z,100205.31
2023-01-11T11:23:59.846Z,100211.50
2023-01-11T11:26:31.132Z,100208.81
2023-01-11T11:29:02.381Z,100213.19
2023-01-11T11:31:30.382Z,100210.69
2023-01-11T11:33:59.134Z,100207.16
2023-01-11T11:36:28.195Z,100206.53
2023-01-11T11:39:03.149Z,100201.16
2023-01-11T11:41:30.822Z,100206.53
2023-01-11T11:44:09.836Z,100212.75
2023-01-11T11:46:37.489Z,100215.66
2023-01-11T11:49:12.886Z,100215.66
2023-01-11T11:51:41.976Z,100207.78
2023-01-11T11:54:15.529Z,100214.00
2023-01-11T11:56:43.177Z,100203.22
2023-01-11T11:59:15.506Z,100205.91
2023-01-11T12:01:46.933Z,100205.09
2023-01-11T12:04:15.358Z,100205.31
2023-01-11T12:06:46.531Z,100216.91
2023-01-11T12:09:19.627Z,100221.47
2023-01-11T12:11:48.284Z,100223.09
2023-01-11T12:14:17.496Z,100218.78
2023-01-11T12:16:45.604Z,100227.66
2023-01-11T12:19:30.304Z,100233.06
2023-01-11T12:22:18.749Z,100226.84
2023-01-11T12:24:47.295Z,100228.50
2023-01-11T12:27:21.301Z,100226.44
2023-01-11T12:30:09.280Z,100215.66
2023-01-11T12:32:50.448Z,100221.03
2023-01-11T12:35:31.771Z,100221.03
2023-01-11T12:38:10.560Z,100228.06
2023-01-11T12:40:42.011Z,100225.19
2023-01-11T12:43:19.715Z,100223.75
2023-01-11T12:45:49.916Z,100233.47
2023-01-11T12:48:24.337Z,100239.88
2023-01-11T12:50:56.003Z,100247.13
2023-01-11T12:53:28.333Z,100244.63
2023-01-11T12:56:04.362Z,100241.94
2023-01-11T12:58:33.046Z,100239.25
2023-01-11T13:01:24.599Z,100243.00
2023-01-11T13:04:02.887Z,100254.78
2023-01-11T13:06:32.211Z,100243.19
2023-01-11T13:09:03.153Z,100257.47
2023-01-11T13:11:38.411Z,100258.28
2023-01-11T13:14:15.347Z,100248.56
2023-01-11T13:16:46.409Z,100255.81
2023-01-11T13:19:14.759Z,100248.56
2023-01-11T13:21:44.501Z,100256.66
2023-01-11T13:24:16.265Z,100255.81
2023-01-11T13:26:44.271Z,100256.88
2023-01-11T13:29:13.249Z,100264.72
2023-01-11T13:31:40.922Z,100264.72
2023-01-11T13:34:09.604Z,100261.84
2023-01-11T13:36:39.911Z,100262.66
2023-01-11T13:39:11.441Z,100266.19
2023-01-11T13:41:41.753Z,100275.91
2023-01-11T13:44:13.270Z,100272.38
2023-01-11T13:46:52.489Z,100272.38
2023-01-11T13:49:23.164Z,100276.13
2023-01-11T13:51:51.472Z,100276.13
2023-01-11T13:54:20.676Z,100288.75
2023-01-11T13:56:51.891Z,100295.16
2023-01-11T13:59:22.234Z,100292.47
2023-01-11T14:01:51.167Z,100288.13
2023-01-11T14:04:21.517Z,100289.75
2023-01-11T14:06:56.989Z,100283.78
2023-01-11T14:09:28.863Z,100293.50
2023-01-11T14:12:01.350Z,100287.50
2023-01-11T14:14:42.131Z,100287.50
2023-01-11T14:17:19.376Z,100286.47
2023-01-11T14:19:49.043Z,100292.88
2023-01-11T14:22:20.289Z,100300.94
2023-01-11T14:24:49.756Z,100300.94
2023-01-11T14:27:23.660Z,100300.94
2023-01-11T14:30:10.114Z,100298.25
2023-01-11T14:32:51.647Z,100302.63
2023-01-11T14:35:25.312Z,100313.38
2023-01-11T14:38:13.507Z,100319.59
2023-01-11T14:40:42.865Z,100309.66
2023-01-11T14:43:19.077Z,100313.16
2023-01-11T14:45:50.423Z,100315.03
2023-01-11T14:48:21.100Z,100326.63
2023-01-11T14:50:51.802Z,100322.88
2023-01-11T14:53:21.511Z,100322.06
2023-01-11T14:55:49.288Z,100326.63
2023-01-11T14:58:19.621Z,100327.44
2023-01-11T15:01:05.669Z,100318.56
2023-01-11T15:03:36.949Z,100325.81
2023-01-11T15:06:11.652Z,100329.53
2023-01-11T15:08:42.581Z,100333.88
2023-01-11T15:11:22.872Z,100340.31
2023-01-11T15:13:52.779Z,100339.66
2023-01-11T15:16:42.061Z,100335.94
2023-01-11T15:19:10.164Z,100338.84
2023-01-11T15:21:44.784Z,100350.44
2023-01-11T15:24:21.135Z,100354.16
2023-01-11T15:26:49.698Z,100364.72
2023-01-11T15:29:22.011Z,100357.69
2023-01-11T15:31:50.899Z,100368.47
2023-01-11T15:34:19.941Z,100372.97
2023-01-11T15:36:55.135Z,100378.38
2023-01-11T15:39:26.730Z,100377.53
2023-01-11T15:42:08.469Z,100381.06
2023-01-11T15:44:47.053Z,100383.75
2023-01-11T15:47:27.149Z,100383.75
2023-01-11T15:50:09.699Z,100375.50
2023-01-11T15:52:51.519Z,100380.03
2023-01-11T15:55:25.595Z,100370.94
2023-01-11T15:58:16.406Z,100381.69
2023-01-11T16:00:53.003Z,100384.38
2023-01-11T16:03:27.031Z,100388.75
2023-01-11T16:05:57.414Z,100387.06
2023-01-11T16:08:26.535Z,100391.63
2023-01-11T16:10:58.556Z,100391.44
2023-01-11T16:13:41.904Z,100386.25
2023-01-11T16:16:16.647Z,100393.50
2023-01-11T16:18:44.707Z,100392.69
2023-01-11T16:21:13.802Z,100390.00
2023-01-11T16:23:42.475Z,100398.06
2023-01-11T16:26:10.108Z,100394.50
2023-01-11T16:28:39.417Z,100396.38
2023-01-11T16:31:07.231Z,100392.88
2023-01-11T16:33:37.457Z,100406.31
2023-01-11T16:36:05.928Z,100414.41
2023-01-11T16:38:34.330Z,100409.00
2023-01-11T16:41:02.013Z,100405.50
2023-01-11T16:43:30.244Z,100414.41
2023-01-11T16:45:59.039Z,100416.25
2023-01-11T16:48:26.937Z,100405.69
2023-01-11T16:51:03.530Z,100412.75
2023-01-11T16:53:31.466Z,100401.97
2023-01-11T16:56:03.699Z,100401.97
2023-01-11T16:58:31.814Z,100410.88
2023-01-11T17:01:02.579Z,100410.66
2023-01-11T17:03:30.575Z,100412.34
2023-01-11T17:06:00.232Z,100418.56
2023-01-11T17:08:31.068Z,100416.69
2023-01-11T17:10:59.614Z,100423.09
2023-01-11T17:14:02.026Z,100420.41
2023-01-11T17:16:30.087Z,100421.25
2023-01-11T17:18:59.921Z,100427.84
2023-01-11T17:21:28.502Z,100422.28
2023-01-11T17:24:01.094Z,100422.47
2023-01-11T17:26:29.210Z,100434.28
2023-01-11T17:28:58.138Z,100437.56
2023-01-11T17:31:26.362Z,100439.66
2023-01-11T17:34:01.429Z,100439.66
2023-01-11T17:36:29.125Z,100434.28
2023-01-11T17:39:02.391Z,100438.81
2023-01-11T17:41:46.621Z,100436.97
2023-01-11T17:44:37.531Z,100437.97
2023-01-11T17:47:07.516Z,100444.19
2023-01-11T17:49:35.267Z,100441.72
2023-01-11T17:52:10.321Z,100443.38
2023-01-11T17:54:39.502Z,100432.59
2023-01-11T17:57:09.591Z,100441.72
2023-01-11T17:59:39.489Z,100440.69
2023-01-11T18:02:11.461Z,100437.97
2023-01-11T18:04:39.232Z,100442.34
2023-01-11T18:07:08.364Z,100445.06
2023-01-11T18:09:37.698Z,100446.69
2023-01-11T18:12:08.116Z,100444.00
2023-01-11T18:14:39.156Z,100446.69
2023-01-11T18:17:08.703Z,100447.34
2023-01-11T18:19:39.329Z,100450.03
2023-01-11T18:22:17.941Z,100452.91
2023-01-11T18:24:45.729Z,100447.53
2023-01-11T18:27:34.837Z,100445.88
2023-01-11T18:30:06.287Z,100435.09
2023-01-11T18:32:37.505Z,100436.13
2023-01-11T18:35:05.399Z,100439.84
2023-01-11T18:37:33.090Z,100439.66
2023-01-11T18:40:02.683Z,100433.44
2023-01-11T18:42:31.368Z,100434.47
2023-01-11T18:45:01.665Z,100425.56
2023-01-11T18:47:30.731Z,100438.19
2023-01-11T18:49:58.354Z,100438.19
2023-01-11T18:52:28.236Z,100440.91
2023-01-11T18:54:55.988Z,100436.34
2023-01-11T18:57:23.900Z,100450.81
2023-01-11T18:59:55.786Z,100446.28
2023-01-11T19:02:24.989Z,100436.94
2023-01-11T19:04:54.964Z,100435.50
2023-01-11T19:07:23.077Z,100440.69
2023-01-11T19:09:50.780Z,100437.97
2023-01-11T19:12:19.327Z,100437.97
2023-01-11T19:14:48.238Z,100439.66
2023-01-11T19:17:16.622Z,100444.63
2023-01-11T19:19:44.463Z,100451.66
2023-01-11T19:22:13.534Z,100446.28
2023-01-11T19:24:42.305Z,100455.00
2023-01-11T19:27:10.051Z,100461.03
2023-01-11T19:29:37.809Z,100458.53
2023-01-11T19:32:06.498Z,100461.03
2023-01-11T19:34:34.165Z,100461.03
2023-01-11T19:37:02.658Z,100469.09
2023-01-11T19:39:33.219Z,100470.94
2023-01-11T19:42:06.694Z,100466.41
2023-01-11T19:44:37.036Z,100469.09
2023-01-11T19:47:11.562Z,100468.25
2023-01-11T19:49:40.777Z,100463.72
2023-01-11T19:52:12.674Z,100466.41
2023-01-11T19:54:43.793Z,100462.69
2023-01-11T19:57:11.857Z,100468.88
2023-01-11T19:59:40.768Z,100462.69
2023-01-11T20:02:08.412Z,100471.56
2023-01-11T20:04:38.004Z,100457.09
2023-01-11T20:07:05.757Z,100464.31
2023-01-11T20:09:34.185Z,100460.81
2023-01-11T20:12:03.231Z,100467.00
2023-01-11T20:14:31.662Z,100467.00
2023-01-11T20:16:59.410Z,100473.25
2023-01-11T20:19:27.086Z,100466.19
2023-01-11T20:21:56.797Z,100464.13
2023-01-11T20:24:28.325Z,100471.16
2023-01-11T20:26:57.706Z,100469.34
2023-01-11T20:29:26.799Z,100468.28
2023-01-11T20:31:55.857Z,100468.28
2023-01-11T20:34:24.364Z,100468.28
2023-01-11T20:36:52.992Z,100456.69
2023-01-11T20:39:20.653Z,100464.56
2023-01-11T20:41:49.707Z,100457.53
2023-01-11T20:44:18.089Z,100459.16
2023-01-11T20:46:48.447Z,100463.72
2023-01-11T20:49:16.248Z,100464.78
2023-01-11T20:51:45.293Z,100468.28
2023-01-11T20:54:13.172Z,100462.91
2023-01-11T20:56:42.501Z,100463.72
2023-01-11T21:01:39.967Z,100464.56
2023-01-11T21:04:09.536Z,100465.59
2023-01-11T21:06:38.928Z,100468.28
2023-01-11T21:09:08.681Z,100467.47
2023-01-11T21:14:07.796Z,100457.53
2023-01-11T21:16:36.307Z,100456.69
2023-01-11T21:19:10.971Z,100461.25
2023-01-11T21:21:39.992Z,100462.91
2023-01-11T21:24:08.231Z,100460.22
2023-01-11T21:26:42.146Z,100457.53
2023-01-11T21:29:10.478Z,100466.41
2023-01-11T21:31:38.246Z,100463.72
2023-01-11T21:34:06.729Z,100465.41
2023-01-11T21:36:34.357Z,100474.31
2023-01-11T21:39:04.711Z,100470.56
2023-01-11T21:41:50.251Z,100471.41
2023-01-11T21:44:19.859Z,100473.25
2023-01-11T21:46:47.580Z,100479.47
2023-01-11T21:49:16.123Z,100478.66
2023-01-11T21:51:43.839Z,100484.03
2023-01-11T21:54:15.325Z,100483.03
2023-01-11T21:56:42.959Z,100478.66
2023-01-11T21:59:11.730Z,100480.50
2023-01-11T22:01:41.588Z,100476.19
2023-01-11T22:04:10.500Z,100485.25
2023-01-11T22:06:38.176Z,100473.66
2023-01-11T22:09:06.686Z,100470.34
2023-01-11T22:11:40.901Z,100461.44
2023-01-11T22:14:10.237Z,100468.69
2023-01-11T22:16:38.090Z,100467.00
2023-01-11T22:19:06.243Z,100483.16
2023-01-11T22:21:34.708Z,100481.50
2023-01-11T22:24:02.370Z,100481.50
2023-01-11T22:26:30.280Z,100479.00
2023-01-11T22:29:16.626Z,100472.81
2023-01-11T22:31:45.698Z,100482.75
2023-01-11T22:34:13.955Z,100485.25
2023-01-11T22:36:42.302Z,100478.19
2023-01-11T22:39:10.057Z,100477.19
2023-01-11T22:41:38.428Z,100470.75
2023-01-11T22:44:07.847Z,100469.91
2023-01-11T22:46:35.626Z,100464.53
2023-01-11T22:49:03.934Z,100470.75
2023-01-11T22:51:31.589Z,100465.38
2023-01-11T22:54:00.369Z,100463.72
2023-01-11T22:56:29.369Z,100463.72
2023-01-11T22:58:57.735Z,100457.69
2023-01-11T23:01:29.109Z,100460.38
2023-01-11T23:03:57.632Z,100458.75
2023-01-11T23:06:26.828Z,100457.06
2023-01-11T23:08:54.630Z,100452.72
2023-01-11T23:11:37.753Z,100453.53
2023-01-11T23:14:05.796Z,100451.91
2023-01-11T23:16:35.511Z,100455.41
2023-01-11T23:19:03.307Z,100451.91
2023-01-11T23:21:30.931Z,100452.06
2023-01-11T23:23:59.194Z,100445.88
2023-01-11T23:26:26.841Z,100441.31
2023-01-11T23:28:54.915Z,100436.97
2023-01-11T23:31:24.337Z,100439.66
2023-01-11T23:33:53.809Z,100447.75
2023-01-11T23:36:21.641Z,100453.13
2023-01-11T23:38:49.398Z,100457.47
2023-01-11T23:41:34.980Z,100454.13
2023-01-11T23:44:02.792Z,100449.56
2023-01-11T23:46:47.650Z,100452.91
2023-01-11T23:49:16.774Z,100457.28
2023-01-11T23:51:44.423Z,100453.72
2023-01-11T23:54:12.067Z,100448.34
2023-01-11T23:56:39.703Z,100455.41
2023-01-11T23:59:07.394Z,100452.72
